sensor_id;sensor_type;location;lat;lon;timestamp;temperature;humidity
14723;DHT22;7452;55.594;12.986;2022-09-09T17:08:56;24.60;99.90
14723;DHT22;7452;55.594;12.986;2022-09-09T17:11:23;23.00;99.90
14723;DHT22;7452;55.594;12.986;2022-09-09T17:13:52;21.70;99.90
14723;DHT22;7452;55.594;12.986;2022-09-09T17:16:22;20.70;99.90
14723;DHT22;7452;55.594;12.986;2022-09-09T17:18:50;20.00;99.90
14723;DHT22;7452;55.594;12.986;2022-09-09T17:21:19;19.50;99.90
14723;DHT22;7452;55.594;12.986;2022-09-09T17:23:47;19.00;99.90
14723;DHT22;7452;55.594;12.986;2022-09-09T17:26:20;18.70;99.90
14723;DHT22;7452;55.594;12.986;2022-09-09T17:28:48;18.40;99.90
14723;DHT22;7452;55.594;12.986;2022-09-09T17:31:16;18.30;99.90
14723;DHT22;7452;55.594;12.986;2022-09-09T17:33:46;18.00;99.90
14723;DHT22;7452;55.594;12.986;2022-09-09T17:36:15;17.90;99.90
14723;DHT22;7452;55.594;12.986;2022-09-09T17:38:45;17.80;99.90
14723;DHT22;7452;55.594;12.986;2022-09-09T17:41:15;17.70;99.90
14723;DHT22;7452;55.594;12.986;2022-09-09T17:43:44;17.60;99.90
14723;DHT22;7452;55.594;12.986;2022-09-09T17:46:14;17.50;99.90
14723;DHT22;7452;55.594;12.986;2022-09-09T17:48:42;17.40;99.90
14723;DHT22;7452;55.594;12.986;2022-09-09T17:51:12;17.30;99.90
14723;DHT22;7452;55.594;12.986;2022-09-09T17:53:42;17.30;99.90
14723;DHT22;7452;55.594;12.986;2022-09-09T17:56:12;17.20;99.90
14723;DHT22;7452;55.594;12.986;2022-09-09T17:58:40;17.10;99.90
14723;DHT22;7452;55.594;12.986;2022-09-09T18:01:11;17.10;99.90
14723;DHT22;7452;55.594;12.986;2022-09-09T18:03:39;17.00;99.90
14723;DHT22;7452;55.594;12.986;2022-09-09T18:06:09;17.00;99.90
14723;DHT22;7452;55.594;12.986;2022-09-09T18:08:39;16.90;99.90
14723;DHT22;7452;55.594;12.986;2022-09-09T18:11:06;16.90;99.90
14723;DHT22;7452;55.594;12.986;2022-09-09T18:13:34;16.90;99.90
14723;DHT22;7452;55.594;12.986;2022-09-09T18:16:06;16.80;99.90
14723;DHT22;7452;55.594;12.986;2022-09-09T18:18:35;16.80;99.90
14723;DHT22;7452;55.594;12.986;2022-09-09T18:21:04;16.80;99.90
14723;DHT22;7452;55.594;12.986;2022-09-09T18:23:33;16.70;99.90
14723;DHT22;7452;55.594;12.986;2022-09-09T18:26:05;16.70;99.90
14723;DHT22;7452;55.594;12.986;2022-09-09T18:28:32;16.70;99.90
14723;DHT22;7452;55.594;12.986;2022-09-09T18:30:59;16.60;99.90
14723;DHT22;7452;55.594;12.986;2022-09-09T18:33:26;16.60;99.90
14723;DHT22;7452;55.594;12.986;2022-09-09T18:35:55;16.50;99.90
14723;DHT22;7452;55.594;12.986;2022-09-09T18:38:22;16.50;99.90
14723;DHT22;7452;55.594;12.986;2022-09-09T18:40:50;16.50;99.90
14723;DHT22;7452;55.594;12.986;2022-09-09T18:43:17;16.40;99.90
14723;DHT22;7452;55.594;12.986;2022-09-09T18:45:44;16.40;99.90
14723;DHT22;7452;55.594;12.986;2022-09-09T18:48:11;16.40;99.90
14723;DHT22;7452;55.594;12.986;2022-09-09T18:50:39;16.40;99.90
14723;DHT22;7452;55.594;12.986;2022-09-09T18:53:08;16.30;99.90
14723;DHT22;7452;55.594;12.986;2022-09-09T18:55:35;16.20;99.90
14723;DHT22;7452;55.594;12.986;2022-09-09T18:58:03;16.20;99.90
14723;DHT22;7452;55.594;12.986;2022-09-09T19:00:30;16.20;99.90
14723;DHT22;7452;55.594;12.986;2022-09-09T19:02:57;16.20;99.90
14723;DHT22;7452;55.594;12.986;2022-09-09T19:05:24;16.10;99.90
14723;DHT22;7452;55.594;12.986;2022-09-09T19:07:51;16.00;99.90
14723;DHT22;7452;55.594;12.986;2022-09-09T19:10:20;16.00;99.90
14723;DHT22;7452;55.594;12.986;2022-09-09T19:12:47;15.90;99.90
14723;DHT22;7452;55.594;12.986;2022-09-09T19:15:14;15.90;99.90
14723;DHT22;7452;55.594;12.986;2022-09-09T19:17:42;15.80;99.90
14723;DHT22;7452;55.594;12.986;2022-09-09T19:20:09;15.70;99.90
14723;DHT22;7452;55.594;12.986;2022-09-09T19:22:36;15.70;99.90
14723;DHT22;7452;55.594;12.986;2022-09-09T19:25:04;15.70;99.90
14723;DHT22;7452;55.594;12.986;2022-09-09T19:27:33;15.70;99.90
14723;DHT22;7452;55.594;12.986;2022-09-09T19:30:00;15.60;99.90
14723;DHT22;7452;55.594;12.986;2022-09-09T19:32:27;15.60;99.90
14723;DHT22;7452;55.594;12.986;2022-09-09T19:34:54;15.60;99.90
14723;DHT22;7452;55.594;12.986;2022-09-09T19:37:21;15.50;99.90
14723;DHT22;7452;55.594;12.986;2022-09-09T19:39:48;15.50;99.90
14723;DHT22;7452;55.594;12.986;2022-09-09T19:42:16;15.50;99.90
14723;DHT22;7452;55.594;12.986;2022-09-09T19:44:44;15.50;99.90
14723;DHT22;7452;55.594;12.986;2022-09-09T19:47:12;15.40;99.90
14723;DHT22;7452;55.594;12.986;2022-09-09T19:49:39;15.40;99.90
14723;DHT22;7452;55.594;12.986;2022-09-09T19:52:06;15.40;99.90
14723;DHT22;7452;55.594;12.986;2022-09-09T19:54:33;15.40;99.90
14723;DHT22;7452;55.594;12.986;2022-09-09T19:57:00;15.40;99.90
14723;DHT22;7452;55.594;12.986;2022-09-09T19:59:28;15.30;99.90
14723;DHT22;7452;55.594;12.986;2022-09-09T20:01:58;15.30;99.90
14723;DHT22;7452;55.594;12.986;2022-09-09T20:04:25;15.30;99.90
14723;DHT22;7452;55.594;12.986;2022-09-09T20:06:53;15.20;99.90
14723;DHT22;7452;55.594;12.986;2022-09-09T20:09:26;15.20;99.90
14723;DHT22;7452;55.594;12.986;2022-09-09T20:11:54;15.20;99.90
14723;DHT22;7452;55.594;12.986;2022-09-09T20:14:22;15.20;99.90
14723;DHT22;7452;55.594;12.986;2022-09-09T20:16:49;15.20;99.90
14723;DHT22;7452;55.594;12.986;2022-09-09T20:19:18;15.20;99.90
14723;DHT22;7452;55.594;12.986;2022-09-09T20:21:46;15.20;99.90
14723;DHT22;7452;55.594;12.986;2022-09-09T20:24:17;15.10;99.90
14723;DHT22;7452;55.594;12.986;2022-09-09T20:26:45;15.10;99.90
14723;DHT22;7452;55.594;12.986;2022-09-09T20:29:14;15.10;99.90
14723;DHT22;7452;55.594;12.986;2022-09-09T20:31:42;15.10;99.90
14723;DHT22;7452;55.594;12.986;2022-09-09T20:34:10;15.00;99.90
14723;DHT22;7452;55.594;12.986;2022-09-09T20:36:40;15.00;99.90
14723;DHT22;7452;55.594;12.986;2022-09-09T20:39:10;15.00;99.90
14723;DHT22;7452;55.594;12.986;2022-09-09T20:41:38;14.90;99.90
14723;DHT22;7452;55.594;12.986;2022-09-09T20:44:07;14.90;99.90
14723;DHT22;7452;55.594;12.986;2022-09-09T20:46:38;14.90;99.90
14723;DHT22;7452;55.594;12.986;2022-09-09T20:49:07;14.90;99.90
14723;DHT22;7452;55.594;12.986;2022-09-09T20:51:35;14.90;99.90
14723;DHT22;7452;55.594;12.986;2022-09-09T20:54:05;14.90;99.90
14723;DHT22;7452;55.594;12.986;2022-09-09T20:56:35;14.90;99.90
14723;DHT22;7452;55.594;12.986;2022-09-09T20:59:05;15.00;99.90
14723;DHT22;7452;55.594;12.986;2022-09-09T21:01:32;15.10;99.90
14723;DHT22;7452;55.594;12.986;2022-09-09T21:04:01;15.10;99.90
14723;DHT22;7452;55.594;12.986;2022-09-09T21:06:29;15.10;99.90
14723;DHT22;7452;55.594;12.986;2022-09-09T21:08:56;15.20;99.90
14723;DHT22;7452;55.594;12.986;2022-09-09T21:11:28;15.20;99.90
14723;DHT22;7452;55.594;12.986;2022-09-09T21:13:55;15.20;99.90
14723;DHT22;7452;55.594;12.986;2022-09-09T21:16:24;15.10;99.90
14723;DHT22;7452;55.594;12.986;2022-09-09T21:18:53;15.10;99.90
14723;DHT22;7452;55.594;12.986;2022-09-09T21:21:21;15.00;99.90
14723;DHT22;7452;55.594;12.986;2022-09-09T21:23:48;15.00;99.90
14723;DHT22;7452;55.594;12.986;2022-09-09T21:26:15;14.90;99.90
14723;DHT22;7452;55.594;12.986;2022-09-09T21:28:45;14.90;99.90
14723;DHT22;7452;55.594;12.986;2022-09-09T21:31:13;14.90;99.90
14723;DHT22;7452;55.594;12.986;2022-09-09T21:33:41;14.90;99.90
14723;DHT22;7452;55.594;12.986;2022-09-09T21:36:10;14.90;99.90
14723;DHT22;7452;55.594;12.986;2022-09-09T21:38:37;14.90;99.90
14723;DHT22;7452;55.594;12.986;2022-09-09T21:41:06;14.90;99.90
14723;DHT22;7452;55.594;12.986;2022-09-09T21:43:33;14.90;99.90
14723;DHT22;7452;55.594;12.986;2022-09-09T21:46:06;14.90;99.90
14723;DHT22;7452;55.594;12.986;2022-09-09T21:48:33;14.90;99.90
14723;DHT22;7452;55.594;12.986;2022-09-09T21:51:02;14.90;99.90
14723;DHT22;7452;55.594;12.986;2022-09-09T21:53:29;15.00;99.90
14723;DHT22;7452;55.594;12.986;2022-09-09T21:56:00;15.00;99.90
14723;DHT22;7452;55.594;12.986;2022-09-09T21:58:27;15.00;99.90
14723;DHT22;7452;55.594;12.986;2022-09-09T22:00:55;15.00;99.90
14723;DHT22;7452;55.594;12.986;2022-09-09T22:03:23;15.00;99.90
14723;DHT22;7452;55.594;12.986;2022-09-09T22:05:50;15.00;99.90
14723;DHT22;7452;55.594;12.986;2022-09-09T22:08:18;15.10;99.90
14723;DHT22;7452;55.594;12.986;2022-09-09T22:10:46;15.10;99.90
14723;DHT22;7452;55.594;12.986;2022-09-09T22:13:23;15.20;99.90
14723;DHT22;7452;55.594;12.986;2022-09-09T22:15:50;15.10;99.90
14723;DHT22;7452;55.594;12.986;2022-09-09T22:18:17;15.20;99.90
14723;DHT22;7452;55.594;12.986;2022-09-09T22:20:46;15.20;99.90
14723;DHT22;7452;55.594;12.986;2022-09-09T22:23:13;15.20;99.90
14723;DHT22;7452;55.594;12.986;2022-09-09T22:25:41;15.20;99.90
14723;DHT22;7452;55.594;12.986;2022-09-09T22:28:09;15.20;99.90
14723;DHT22;7452;55.594;12.986;2022-09-09T22:30:36;15.20;99.90
14723;DHT22;7452;55.594;12.986;2022-09-09T22:33:04;15.20;99.90
14723;DHT22;7452;55.594;12.986;2022-09-09T22:35:38;15.20;99.90
14723;DHT22;7452;55.594;12.986;2022-09-09T22:38:08;15.20;99.90
14723;DHT22;7452;55.594;12.986;2022-09-09T22:40:37;15.20;99.90
14723;DHT22;7452;55.594;12.986;2022-09-09T22:43:04;15.20;99.90
14723;DHT22;7452;55.594;12.986;2022-09-09T22:45:32;15.10;99.90
14723;DHT22;7452;55.594;12.986;2022-09-09T22:48:00;15.10;99.90
14723;DHT22;7452;55.594;12.986;2022-09-09T22:50:27;15.10;99.90
14723;DHT22;7452;55.594;12.986;2022-09-09T22:52:56;15.00;99.90
14723;DHT22;7452;55.594;12.986;2022-09-09T22:55:25;15.00;99.90
14723;DHT22;7452;55.594;12.986;2022-09-09T22:57:52;15.00;99.90
14723;DHT22;7452;55.594;12.986;2022-09-09T23:00:21;15.00;99.90
14723;DHT22;7452;55.594;12.986;2022-09-09T23:02:49;15.00;99.90
14723;DHT22;7452;55.594;12.986;2022-09-09T23:05:17;15.00;99.90
14723;DHT22;7452;55.594;12.986;2022-09-09T23:07:44;15.00;99.90
14723;DHT22;7452;55.594;12.986;2022-09-09T23:10:12;15.00;99.90
14723;DHT22;7452;55.594;12.986;2022-09-09T23:12:42;15.00;99.90
14723;DHT22;7452;55.594;12.986;2022-09-09T23:15:09;15.10;99.90
14723;DHT22;7452;55.594;12.986;2022-09-09T23:17:37;15.10;99.90
14723;DHT22;7452;55.594;12.986;2022-09-09T23:20:07;15.10;99.90
14723;DHT22;7452;55.594;12.986;2022-09-09T23:22:35;15.10;99.90
14723;DHT22;7452;55.594;12.986;2022-09-09T23:25:03;15.20;99.90
14723;DHT22;7452;55.594;12.986;2022-09-09T23:27:31;15.20;99.90
14723;DHT22;7452;55.594;12.986;2022-09-09T23:30:00;15.20;99.90
14723;DHT22;7452;55.594;12.986;2022-09-09T23:32:27;15.30;99.90
14723;DHT22;7452;55.594;12.986;2022-09-09T23:34:54;15.30;99.90
14723;DHT22;7452;55.594;12.986;2022-09-09T23:37:21;15.30;99.90
14723;DHT22;7452;55.594;12.986;2022-09-09T23:39:48;15.40;99.90
14723;DHT22;7452;55.594;12.986;2022-09-09T23:42:15;15.40;99.90
14723;DHT22;7452;55.594;12.986;2022-09-09T23:44:42;15.40;99.90
14723;DHT22;7452;55.594;12.986;2022-09-09T23:47:13;15.40;99.90
14723;DHT22;7452;55.594;12.986;2022-09-09T23:49:40;15.30;99.90
14723;DHT22;7452;55.594;12.986;2022-09-09T23:52:07;15.30;99.90
14723;DHT22;7452;55.594;12.986;2022-09-09T23:54:34;15.20;99.90
14723;DHT22;7452;55.594;12.986;2022-09-09T23:57:03;15.20;99.90
14723;DHT22;7452;55.594;12.986;2022-09-09T23:59:34;15.10;99.90
